Time;durP1;ratioP1;P1;durP2;ratioP2;P2;SDS_P1;SDS_P2;PMS_P1;PMS_P2;Temp;Humidity;BMP_temperature;BMP_pressure;BME280_temperature;BME280_humidity;BME280_pressure;Samples;Min_cycle;Max_cycle;Signal;HPM_P1;HPM_P2
2021/12/15 00:00:38;;;;;;;4.20;2.30;;;;;;;10.84;86.23;100887.19;5030239;28;20091;-71
2021/12/15 00:03:07;;;;;;;3.75;2.25;;;;;;;10.80;86.20;100893.31;5029671;28;20033;-71
2021/12/15 00:05:35;;;;;;;7.38;2.33;;;;;;;10.79;86.04;100884.50;5029925;28;20106;-71
2021/12/15 00:08:07;;;;;;;4.07;1.80;;;;;;;10.72;85.85;100876.44;5047463;28;20413;-72
2021/12/15 00:10:35;;;;;;;3.55;2.08;;;;;;;10.67;85.65;100870.19;5029039;28;20095;-71
2021/12/15 00:13:03;;;;;;;8.23;3.90;;;;;;;10.65;85.28;100874.56;5037214;28;20119;-71
2021/12/15 00:15:31;;;;;;;31.45;21.55;;;;;;;10.61;84.86;100881.53;5030434;28;20114;-73
2021/12/15 00:18:00;;;;;;;32.72;24.73;;;;;;;10.60;84.82;100873.59;5026863;28;20037;-71
2021/12/15 00:20:30;;;;;;;10.73;7.57;;;;;;;10.62;84.96;100885.06;5049939;28;20116;-71
2021/12/15 00:22:58;;;;;;;10.75;4.28;;;;;;;10.60;84.93;100884.16;5050983;28;20053;-71
2021/12/15 00:25:39;;;;;;;12.63;6.60;;;;;;;10.57;84.69;100886.72;5030783;28;20061;-71
2021/12/15 00:28:08;;;;;;;8.18;3.28;;;;;;;10.52;84.61;100881.38;5021690;28;20493;-71
2021/12/15 00:30:36;;;;;;;5.55;2.22;;;;;;;10.52;84.41;100883.13;5029106;28;20124;-71
2021/12/15 00:33:04;;;;;;;5.85;2.33;;;;;;;10.53;84.21;100874.34;5027145;28;20072;-72
2021/12/15 00:35:32;;;;;;;5.80;2.72;;;;;;;10.50;84.22;100871.69;5031463;28;20087;-73
2021/12/15 00:38:00;;;;;;;5.22;2.63;;;;;;;10.48;83.95;100869.00;5014341;28;20136;-71
2021/12/15 00:40:30;;;;;;;4.93;2.38;;;;;;;10.47;83.66;100869.84;5007230;28;20045;-72
2021/12/15 00:42:58;;;;;;;9.60;3.30;;;;;;;10.34;83.83;100866.13;5029618;28;20037;-72
2021/12/15 00:45:27;;;;;;;6.68;2.97;;;;;;;10.29;84.11;100874.81;5013706;28;20059;-72
2021/12/15 00:47:55;;;;;;;6.13;2.53;;;;;;;10.23;83.99;100886.16;5026522;28;20060;-71
2021/12/15 00:50:24;;;;;;;8.10;2.40;;;;;;;10.18;83.76;100879.88;5012720;28;20100;-71
2021/12/15 00:52:52;;;;;;;8.85;2.78;;;;;;;10.18;83.73;100881.63;5028557;28;20045;-71
2021/12/15 00:55:28;;;;;;;7.25;2.70;;;;;;;10.23;83.54;100885.25;5032439;28;20416;-72
2021/12/15 00:57:58;;;;;;;10.15;6.22;;;;;;;10.24;83.73;100887.91;5032165;28;20099;-71
2021/12/15 01:00:29;;;;;;;10.18;5.30;;;;;;;10.22;83.79;100884.38;5050327;28;20045;-70
2021/12/15 01:02:57;;;;;;;10.50;4.43;;;;;;;10.12;83.28;100889.38;5017315;28;20452;-71
2021/12/15 01:05:32;;;;;;;8.38;5.68;;;;;;;10.11;83.44;100890.28;5002247;28;20038;-71
2021/12/15 01:08:01;;;;;;;7.50;5.65;;;;;;;10.11;83.57;100890.28;5017211;28;20042;-71
2021/12/15 01:10:43;;;;;;;10.20;4.32;;;;;;;10.12;83.73;100882.34;5049365;28;20045;-71
2021/12/15 01:21:41;;;;;;;5.53;2.80;;;;;;;9.97;83.07;100879.44;4989468;28;20042;-71
2021/12/15 01:24:10;;;;;;;3.75;2.47;;;;;;;9.92;82.86;100873.16;4988592;28;20258;-71
2021/12/15 01:26:38;;;;;;;6.43;2.95;;;;;;;9.89;83.21;100884.56;5022847;28;20037;-71
2021/12/15 01:29:07;;;;;;;3.35;2.35;;;;;;;9.90;83.16;100881.06;5049871;28;20053;-71
2021/12/15 01:31:35;;;;;;;5.40;2.40;;;;;;;9.89;83.31;100879.28;5048947;28;20082;-71
2021/12/15 01:34:03;;;;;;;4.82;2.30;;;;;;;9.87;83.50;100880.09;5031255;28;20420;-71
2021/12/15 01:36:31;;;;;;;3.10;2.08;;;;;;;9.86;83.42;100884.47;5026143;28;20188;-71
2021/12/15 01:38:59;;;;;;;8.25;2.45;;;;;;;9.82;83.17;100880.03;5004725;28;20072;-71
2021/12/15 01:41:27;;;;;;;4.00;2.80;;;;;;;9.80;82.93;100888.75;5031479;28;20105;-71
2021/12/15 01:46:56;;;;;;;13.75;9.35;;;;;;;10.00;83.23;100892.66;5028266;28;20675;-71
2021/12/15 01:49:33;;;;;;;11.10;6.55;;;;;;;10.08;83.13;100891.09;5034305;28;20485;-71
2021/12/15 01:52:05;;;;;;;9.60;4.88;;;;;;;10.15;83.08;100895.63;5040475;28;20127;-71
2021/12/15 01:54:36;;;;;;;5.65;2.97;;;;;;;10.18;82.97;100894.81;5015103;28;20045;-71
2021/12/15 01:57:05;;;;;;;7.47;3.40;;;;;;;10.12;82.78;100892.91;5022464;28;20041;-71
2021/12/15 01:59:33;;;;;;;11.85;2.70;;;;;;;10.15;82.87;100881.53;5001209;28;20485;-71
2021/12/15 02:02:04;;;;;;;6.13;2.42;;;;;;;10.15;82.58;100887.72;5002168;28;20042;-71
2021/12/15 02:04:32;;;;;;;14.45;7.53;;;;;;;10.07;82.57;100884.03;5029129;28;20132;-73
2021/12/15 02:07:00;;;;;;;10.30;6.30;;;;;;;10.04;82.34;100881.34;5012845;28;20045;-71
2021/12/15 02:10:01;;;;;;;7.63;4.03;;;;;;;10.11;82.33;100880.56;5019881;28;20417;-71
2021/12/15 02:12:35;;;;;;;6.93;3.13;;;;;;;10.15;82.07;100863.06;5028556;28;20121;-70
2021/12/15 02:15:08;;;;;;;25.60;14.98;;;;;;;10.26;81.68;100874.75;5011518;28;20042;-71
2021/12/15 02:17:37;;;;;;;9.88;3.85;;;;;;;10.33;81.95;100869.59;5003654;28;20066;-71
2021/12/15 02:20:07;;;;;;;13.43;10.32;;;;;;;10.34;81.32;100865.22;5011785;28;20068;-71
2021/12/15 02:22:37;;;;;;;16.88;11.80;;;;;;;10.35;81.47;100867.00;5032890;28;20037;-70
2021/12/15 02:25:10;;;;;;;18.52;11.30;;;;;;;10.37;81.78;100862.66;5015769;28;20525;-70
2021/12/15 02:27:39;;;;;;;42.47;22.67;;;;;;;10.40;81.68;100870.59;5029287;28;20038;-71
2021/12/15 02:30:22;;;;;;;29.30;15.70;;;;;;;10.45;81.90;100870.69;5028714;28;20041;-71
2021/12/15 02:33:02;;;;;;;16.90;10.40;;;;;;;10.49;81.66;100877.81;5030573;28;20064;-71
2021/12/15 02:38:18;;;;;;;11.93;10.07;;;;;;;10.56;81.55;100899.06;5029025;28;20383;-71
2021/12/15 02:40:46;;;;;;;6.03;5.20;;;;;;;10.59;81.57;100904.38;5025344;28;20041;-71
2021/12/15 02:43:14;;;;;;;5.22;3.33;;;;;;;10.63;81.90;100907.97;5011844;28;20475;-71
2021/12/15 02:45:41;;;;;;;5.70;3.20;;;;;;;10.67;81.73;100915.09;5027979;28;20034;-71
2021/12/15 02:48:10;;;;;;;5.32;3.38;;;;;;;10.71;82.10;100908.97;5029077;28;20115;-71
2021/12/15 02:50:37;;;;;;;3.70;3.13;;;;;;;10.73;81.92;100897.59;5010868;28;20046;-71
2021/12/15 02:53:06;;;;;;;4.57;1.30;;;;;;;10.78;82.06;100903.84;5011228;28;20456;-71
2021/12/15 02:55:35;;;;;;;6.32;1.73;;;;;;;10.81;81.86;100895.09;4993906;28;20100;-71
2021/12/15 02:58:02;;;;;;;4.63;2.70;;;;;;;10.79;82.02;100897.69;5028991;28;20121;-72
2021/12/15 03:00:43;;;;;;;6.85;4.10;;;;;;;10.84;82.15;100897.75;5029270;28;20107;-71
2021/12/15 03:06:00;;;;;;;9.98;4.97;;;;;;;10.87;82.40;100902.22;5023751;28;20448;-71
2021/12/15 03:08:47;;;;;;;8.73;3.97;;;;;;;10.84;82.40;100903.03;5028890;28;20037;-71
2021/12/15 03:16:46;;;;;;;;;;;;;;;10.72;82.96;100908.13;5028476;28;20046;-72
2021/12/15 03:19:14;;;;;;;7.32;3.83;;;;;;;10.68;83.34;100908.94;5014701;28;19974;-72
2021/12/15 03:21:42;;;;;;;5.82;4.05;;;;;;;10.69;83.21;100908.97;5016683;28;20048;-72
2021/12/15 03:24:14;;;;;;;11.23;7.70;;;;;;;10.70;83.03;100910.72;5011323;28;20041;-72
2021/12/15 03:26:52;;;;;;;9.88;8.35;;;;;;;10.71;82.85;100906.34;5027091;28;20538;-71
2021/12/15 03:35:05;;;;;;;11.13;5.75;;;;;;;10.76;83.00;100920.53;5027327;28;20038;-71
2021/12/15 03:37:35;;;;;;;19.08;9.38;;;;;;;10.81;83.02;100925.88;5034456;28;20041;-71
2021/12/15 03:40:09;;;;;;;9.48;6.40;;;;;;;10.82;83.15;100925.91;5032629;28;20480;-73
2021/12/15 03:42:41;;;;;;;10.10;5.95;;;;;;;10.83;83.19;100934.72;5005263;28;20200;-71
2021/12/15 03:45:12;;;;;;;7.90;3.50;;;;;;;10.83;83.32;100926.81;4999654;28;20038;-72
2021/12/15 03:47:47;;;;;;;3.22;1.50;;;;;;;10.78;83.32;100918.78;5027009;28;20034;-71
2021/12/15 03:50:18;;;;;;;7.78;1.40;;;;;;;10.69;83.35;100918.66;4994347;28;20565;-71
2021/12/15 03:52:49;;;;;;;9.15;4.75;;;;;;;10.66;83.38;100926.50;5010301;28;20130;-71
2021/12/15 03:55:18;;;;;;;22.23;13.80;;;;;;;10.58;83.45;100925.47;5049014;28;20132;-72
2021/12/15 03:57:47;;;;;;;22.58;15.77;;;;;;;10.51;83.48;100923.56;5031709;28;20124;-71
2021/12/15 04:00:17;;;;;;;21.30;15.02;;;;;;;10.47;83.76;100924.38;5016251;28;20103;-71
2021/12/15 04:02:46;;;;;;;20.77;13.18;;;;;;;10.48;83.83;100918.25;5034047;28;20091;-72
2021/12/15 04:05:17;;;;;;;26.73;15.20;;;;;;;10.44;83.98;100906.72;5045685;28;20092;-71
2021/12/15 04:07:46;;;;;;;18.85;10.60;;;;;;;10.42;84.18;100908.47;5034604;28;20100;-71
2021/12/15 04:10:15;;;;;;;11.15;6.97;;;;;;;10.42;84.18;100903.19;5015823;28;20235;-71
2021/12/15 04:12:44;;;;;;;2.50;1.30;;;;;;;10.36;84.00;100905.72;5030694;28;20407;-71
2021/12/15 04:15:27;;;;;;;2.22;1.20;;;;;;;10.32;83.95;100910.03;5032146;28;20084;-71
2021/12/15 04:17:59;;;;;;;3.17;1.20;;;;;;;10.22;83.78;100907.22;5028617;28;20056;-71
2021/12/15 04:20:30;;;;;;;5.82;1.50;;;;;;;10.19;83.93;100907.13;5030535;28;20041;-71
2021/12/15 04:22:59;;;;;;;6.82;1.95;;;;;;;10.15;83.98;100914.09;5047484;28;20041;-71
2021/12/15 04:25:30;;;;;;;6.53;1.90;;;;;;;10.15;83.66;100908.81;5030501;28;20092;-71
2021/12/15 04:28:01;;;;;;;6.90;1.92;;;;;;;10.13;83.61;100910.50;5012422;28;20061;-71
2021/12/15 04:30:31;;;;;;;8.30;4.03;;;;;;;10.14;83.56;100922.84;5016665;28;20443;-72
2021/12/15 04:33:07;;;;;;;61.15;51.13;;;;;;;10.15;83.30;100921.09;5023183;28;20057;-72
2021/12/15 04:35:36;;;;;;;16.85;8.30;;;;;;;10.14;83.22;100920.22;5022841;28;20125;-72
2021/12/15 04:38:04;;;;;;;13.77;8.27;;;;;;;10.08;82.98;100919.19;5030131;28;20037;-71
2021/12/15 04:40:32;;;;;;;7.78;2.63;;;;;;;9.98;82.72;100931.28;5029404;28;20050;-73
2021/12/15 04:43:01;;;;;;;5.90;2.40;;;;;;;9.93;82.73;100928.56;5032300;28;20371;-71
2021/12/15 04:45:30;;;;;;;4.63;1.92;;;;;;;9.84;82.42;100927.50;5046985;28;20497;-72
2021/12/15 04:47:58;;;;;;;25.90;23.40;;;;;;;9.75;82.42;100933.47;5028000;28;20076;-71
2021/12/15 04:50:28;;;;;;;11.77;6.90;;;;;;;9.77;82.74;100922.97;5008985;28;20050;-71
2021/12/15 04:52:59;;;;;;;12.70;11.13;;;;;;;9.80;82.76;100923.00;5010245;28;20050;-71
2021/12/15 04:55:29;;;;;;;6.80;3.80;;;;;;;9.75;82.62;100933.47;5013405;28;20154;-71
2021/12/15 04:57:57;;;;;;;4.80;2.70;;;;;;;9.73;82.80;100939.56;5030379;28;20456;-71
2021/12/15 05:00:29;;;;;;;5.45;3.22;;;;;;;9.76;82.90;100944.91;5030342;28;20110;-71
2021/12/15 05:02:59;;;;;;;8.13;5.88;;;;;;;9.78;82.65;100944.06;5031028;28;20045;-71
2021/12/15 05:05:32;;;;;;;13.38;10.02;;;;;;;9.80;82.63;100941.47;5017926;28;20132;-71
2021/12/15 05:08:01;;;;;;;5.33;3.83;;;;;;;9.82;82.87;100939.75;5029910;28;20048;-71
2021/12/15 05:10:28;;;;;;;3.10;1.60;;;;;;;9.83;82.91;100946.81;5040276;28;20095;-70
2021/12/15 05:12:57;;;;;;;14.20;6.72;;;;;;;9.84;82.95;100944.22;5013550;28;20046;-71
2021/12/15 05:15:25;;;;;;;21.92;11.82;;;;;;;9.85;83.06;100939.81;5019314;28;20120;-71
2021/12/15 05:17:54;;;;;;;6.22;2.63;;;;;;;9.82;83.16;100940.66;5031046;28;20069;-72
2021/12/15 05:20:25;;;;;;;5.05;2.72;;;;;;;9.85;83.24;100934.53;5012845;28;20076;-71
2021/12/15 05:22:53;;;;;;;18.10;13.13;;;;;;;9.85;83.16;100947.72;5046591;28;20053;-71
2021/12/15 05:25:20;;;;;;;20.33;14.93;;;;;;;9.89;83.45;100953.13;5036846;28;20037;-71
2021/12/15 05:27:48;;;;;;;29.20;25.83;;;;;;;9.91;83.42;100953.16;5048153;28;20136;-71
2021/12/15 05:30:19;;;;;;;129.75;117.15;;;;;;;9.80;83.24;100962.56;5050195;28;20037;-71
2021/12/15 05:32:47;;;;;;;48.65;43.35;;;;;;;9.73;83.65;100969.44;5032592;28;20045;-71
2021/12/15 05:35:21;;;;;;;36.42;31.60;;;;;;;9.82;83.84;100966.13;5032218;28;20044;-72
2021/12/15 05:37:52;;;;;;;20.70;11.18;;;;;;;9.85;84.03;100968.81;5032985;28;20095;-72
2021/12/15 05:40:20;;;;;;;11.77;8.20;;;;;;;9.88;84.11;100971.53;5047319;28;20436;-71
2021/12/15 05:42:48;;;;;;;15.35;9.15;;;;;;;9.97;84.28;100974.38;5048703;28;20464;-71
2021/12/15 05:45:16;;;;;;;18.35;11.60;;;;;;;10.08;84.09;100974.59;5023761;28;20125;-71
2021/12/15 05:47:44;;;;;;;16.23;13.63;;;;;;;10.10;84.13;100975.53;5012794;28;20057;-71
2021/12/15 05:50:14;;;;;;;22.70;16.10;;;;;;;10.15;84.24;100980.03;5011616;28;20043;-71
2021/12/15 05:52:42;;;;;;;21.17;16.77;;;;;;;10.21;84.29;100987.22;5012447;28;20064;-72
2021/12/15 05:55:14;;;;;;;20.38;17.38;;;;;;;10.29;84.45;100986.53;5042495;28;20091;-71
2021/12/15 05:57:43;;;;;;;31.98;24.85;;;;;;;10.32;84.47;100988.31;5048614;28;20036;-72
2021/12/15 06:00:14;;;;;;;25.13;21.17;;;;;;;10.27;84.25;100993.50;5031828;28;20439;-71
2021/12/15 06:02:43;;;;;;;39.72;34.45;;;;;;;10.23;84.62;100993.41;5031865;28;20041;-71
2021/12/15 06:05:13;;;;;;;33.42;27.38;;;;;;;10.21;84.67;100997.75;5032202;28;20037;-72
2021/12/15 06:07:41;;;;;;;27.05;21.00;;;;;;;10.29;85.07;101002.34;5049314;28;20041;-71
2021/12/15 06:10:13;;;;;;;31.55;25.60;;;;;;;10.36;85.04;101001.63;5022799;28;20049;-72
2021/12/15 06:12:42;;;;;;;24.85;20.85;;;;;;;10.41;84.78;101011.34;5031433;28;20041;-71
2021/12/15 06:15:11;;;;;;;23.00;17.83;;;;;;;10.51;84.89;101006.28;5030637;28;20039;-72
2021/12/15 06:17:39;;;;;;;22.60;19.05;;;;;;;10.74;85.34;101009.38;5029143;28;20041;-72
2021/12/15 06:20:08;;;;;;;23.63;19.13;;;;;;;11.11;86.29;101014.44;5029634;28;20078;-72
2021/12/15 06:22:37;;;;;;;26.35;21.02;;;;;;;11.44;87.24;101008.84;5039359;28;20037;-72
2021/12/15 06:25:05;;;;;;;18.13;15.38;;;;;;;11.70;87.93;101011.00;5016979;28;20064;-72
2021/12/15 06:27:36;;;;;;;16.77;14.10;;;;;;;11.84;88.47;101010.38;5047134;28;20091;-72
2021/12/15 06:30:07;;;;;;;12.30;9.02;;;;;;;12.04;88.79;101005.34;5041347;28;20037;-72
2021/12/15 06:32:35;;;;;;;12.45;9.57;;;;;;;12.08;89.04;101001.88;5028656;28;20045;-72
2021/12/15 06:35:03;;;;;;;21.83;15.23;;;;;;;12.17;89.20;101004.66;5029723;28;20092;-73
2021/12/15 06:37:30;;;;;;;35.15;25.92;;;;;;;12.24;89.31;101003.84;5046608;28;20056;-71
2021/12/15 06:39:58;;;;;;;22.52;14.77;;;;;;;12.25;89.17;101003.00;5027638;28;20037;-72
2021/12/15 06:42:26;;;;;;;14.32;9.38;;;;;;;12.05;88.83;101007.13;5022226;28;20051;-72
2021/12/15 06:44:56;;;;;;;10.45;7.55;;;;;;;11.79;88.40;101012.06;5033599;28;20052;-71
2021/12/15 06:57:13;;;;;;;14.00;8.45;;;;;;;11.51;87.76;101013.34;5015544;28;20593;-71
2021/12/15 06:58:39;;;;;;;29.95;26.80;;;;;;;12.07;86.75;101010.69;5048237;28;20581;-71
2021/12/15 07:01:10;;;;;;;23.42;20.40;;;;;;;12.26;86.83;101020.66;5047055;28;20155;-72
2021/12/15 07:03:38;;;;;;;18.65;15.95;;;;;;;12.47;87.02;101030.59;5039839;28;20029;-72
2021/12/15 07:06:05;;;;;;;11.50;8.55;;;;;;;12.74;86.92;101025.63;5021760;28;20048;-72
2021/12/15 07:08:35;;;;;;;7.25;5.50;;;;;;;12.99;87.00;101028.56;5004881;28;20116;-74
2021/12/15 07:11:05;;;;;;;8.32;5.78;;;;;;;13.26;86.99;101026.16;5027948;28;20045;-72
2021/12/15 07:13:33;;;;;;;8.60;5.05;;;;;;;13.49;87.08;101027.25;5029839;28;20045;-71
2021/12/15 07:16:04;;;;;;;9.40;4.93;;;;;;;13.69;86.90;101027.41;5011927;28;20052;-71
2021/12/15 07:18:43;;;;;;;15.68;6.65;;;;;;;13.90;86.74;101032.88;5020712;28;20492;-71
2021/12/15 07:21:17;;;;;;;9.45;4.20;;;;;;;14.02;86.66;101039.13;5033302;28;20041;-72
2021/12/15 07:23:45;;;;;;;7.53;3.22;;;;;;;13.88;86.52;101039.03;5037556;28;20102;-72
2021/12/15 07:26:13;;;;;;;8.30;2.90;;;;;;;14.00;86.42;101039.09;5010448;28;20037;-72
2021/12/15 07:28:41;;;;;;;5.97;1.90;;;;;;;14.15;86.33;101041.84;5033110;28;20129;-72
2021/12/15 07:31:09;;;;;;;7.10;3.00;;;;;;;14.38;86.20;101039.34;5047505;28;20044;-71
2021/12/15 07:33:39;;;;;;;5.05;1.85;;;;;;;14.58;86.00;101045.63;5036641;28;20049;-72
2021/12/15 07:36:08;;;;;;;2.67;1.30;;;;;;;14.79;85.63;101041.25;5043953;28;20455;-72
2021/12/15 07:38:41;;;;;;;3.63;1.70;;;;;;;14.96;85.60;101040.44;5045698;28;20604;-72
2021/12/15 07:41:20;;;;;;;4.95;1.95;;;;;;;15.21;85.72;101045.78;5022627;28;20037;-72
2021/12/15 07:43:47;;;;;;;4.20;1.90;;;;;;;15.46;85.77;101050.25;5029046;28;20041;-73
2021/12/15 07:46:15;;;;;;;4.20;0.70;;;;;;;15.64;85.37;101046.72;5029996;28;20045;-72
2021/12/15 07:48:44;;;;;;;3.42;1.13;;;;;;;15.50;85.07;101047.56;5026994;28;20108;-69
2021/12/15 07:51:13;;;;;;;4.53;1.17;;;;;;;15.46;84.81;101051.13;5034569;28;20091;-70
2021/12/15 07:53:43;;;;;;;2.70;1.30;;;;;;;15.64;83.51;101050.25;5042486;28;20052;-69
2021/12/15 07:56:11;;;;;;;8.85;2.33;;;;;;;15.67;82.68;101044.94;5046961;28;20401;-70
2021/12/15 07:58:39;;;;;;;6.88;2.20;;;;;;;15.66;82.35;101051.16;5014892;28;20053;-69
2021/12/15 08:01:08;;;;;;;5.30;2.42;;;;;;;15.81;82.46;101053.81;5021471;28;20106;-70
2021/12/15 08:03:39;;;;;;;5.80;1.63;;;;;;;15.75;81.93;101051.13;5043394;28;20504;-70
2021/12/15 08:06:09;;;;;;;6.68;2.50;;;;;;;15.59;81.48;101045.84;5046929;28;20041;-70
2021/12/15 08:08:37;;;;;;;4.95;2.13;;;;;;;15.42;80.59;101056.47;5022282;28;20148;-70
2021/12/15 08:11:05;;;;;;;5.53;2.63;;;;;;;15.52;78.68;101060.88;5035078;28;20052;-70
2021/12/15 08:13:35;;;;;;;3.92;2.17;;;;;;;15.69;79.32;101059.13;5033222;28;20505;-69
2021/12/15 08:16:03;;;;;;;6.72;2.95;;;;;;;15.67;78.81;101062.69;5044908;28;20127;-68
2021/12/15 08:18:31;;;;;;;4.93;2.05;;;;;;;15.58;77.97;101052.03;5028800;28;20076;-69
2021/12/15 08:21:00;;;;;;;6.45;1.70;;;;;;;15.53;77.45;101060.91;5005844;28;20069;-69
2021/12/15 08:23:29;;;;;;;4.05;1.45;;;;;;;15.75;77.71;101053.78;5022627;28;20052;-69
2021/12/15 08:25:58;;;;;;;3.92;1.42;;;;;;;15.81;78.03;101047.59;5050453;28;20041;-70
2021/12/15 08:28:25;;;;;;;4.72;1.25;;;;;;;15.99;77.95;101049.34;5041442;28;20041;-69
2021/12/15 08:30:55;;;;;;;4.10;1.30;;;;;;;16.16;77.17;101045.75;5042852;28;20041;-70
2021/12/15 08:33:24;;;;;;;4.10;0.95;;;;;;;16.35;77.02;101050.13;5038796;28;20041;-69
2021/12/15 08:35:57;;;;;;;3.45;0.90;;;;;;;16.20;74.33;101049.31;5039483;28;20049;-69
2021/12/15 08:38:26;;;;;;;2.33;1.00;;;;;;;16.09;74.82;101037.75;5046636;28;20041;-70
2021/12/15 08:40:57;;;;;;;4.03;1.20;;;;;;;16.17;74.10;101030.66;5036455;28;20136;-69
2021/12/15 08:43:25;;;;;;;4.70;1.25;;;;;;;16.32;73.77;101035.94;5021660;28;20049;-69
2021/12/15 08:45:56;;;;;;;3.88;1.23;;;;;;;16.39;73.09;101043.03;5039593;28;20501;-69
2021/12/15 08:48:24;;;;;;;8.32;2.10;;;;;;;16.20;72.60;101039.53;5045038;28;20124;-69
2021/12/15 08:50:52;;;;;;;9.57;3.72;;;;;;;15.92;71.52;101044.03;5022169;28;20090;-70
2021/12/15 08:53:20;;;;;;;7.82;3.30;;;;;;;15.64;71.46;101046.72;5043769;28;20544;-70
2021/12/15 08:55:49;;;;;;;8.27;2.83;;;;;;;15.50;70.97;101042.25;5049539;28;20567;-70
2021/12/15 08:58:21;;;;;;;5.55;2.10;;;;;;;15.43;70.77;101048.44;5040580;28;20045;-70
2021/12/15 09:00:52;;;;;;;7.18;2.78;;;;;;;15.58;70.94;101058.25;5019413;28;21439;-70
2021/12/15 09:03:22;;;;;;;4.28;1.17;;;;;;;15.72;71.15;101048.50;5028985;28;20128;-69
2021/12/15 09:05:52;;;;;;;3.90;1.13;;;;;;;15.67;69.49;101047.63;5045840;28;20048;-70
2021/12/15 09:08:23;;;;;;;3.25;1.10;;;;;;;15.60;69.85;101047.63;5030439;28;20051;-70
2021/12/15 09:10:53;;;;;;;2.22;0.77;;;;;;;15.70;70.40;101047.59;5029991;28;20037;-70
2021/12/15 09:13:24;;;;;;;2.85;1.30;;;;;;;15.99;70.27;101049.34;5041880;28;20049;-70
2021/12/15 09:15:51;;;;;;;3.90;2.13;;;;;;;16.12;71.53;101043.09;5042674;28;20098;-70
2021/12/15 09:18:19;;;;;;;1.58;0.93;;;;;;;16.42;71.44;101047.44;5036477;28;20115;-69
2021/12/15 09:20:47;;;;;;;5.05;1.80;;;;;;;16.45;71.71;101047.44;5026682;28;20049;-70
2021/12/15 09:23:19;;;;;;;9.15;3.40;;;;;;;16.45;71.93;101050.97;5044192;28;21040;-69
2021/12/15 09:25:48;;;;;;;7.28;4.50;;;;;;;16.45;71.54;101037.66;5046100;28;20147;-69
2021/12/15 09:28:19;;;;;;;6.03;1.85;;;;;;;16.60;70.97;101034.97;5029803;28;20045;-69
2021/12/15 09:30:50;;;;;;;3.90;1.67;;;;;;;16.82;70.93;101032.16;5046199;28;20396;-70
2021/12/15 09:33:21;;;;;;;4.57;2.15;;;;;;;16.78;70.30;101030.44;5042505;28;20135;-70
2021/12/15 09:35:49;;;;;;;7.82;2.35;;;;;;;16.73;69.96;101034.03;5049324;28;20057;-69
2021/12/15 09:38:19;;;;;;;7.90;3.00;;;;;;;16.87;69.36;101035.72;5042792;28;20624;-70
2021/12/15 09:40:49;;;;;;;6.78;3.08;;;;;;;16.86;68.36;101040.16;5041084;28;20037;-69
2021/12/15 09:43:17;;;;;;;5.82;2.08;;;;;;;16.57;67.07;101034.94;5035808;28;20529;-69
2021/12/15 09:45:51;;;;;;;4.82;1.65;;;;;;;16.45;67.36;101031.44;5019140;28;20038;-69
2021/12/15 10:05:19;;;;;;;7.55;3.10;;;;;;;16.97;68.75;101024.09;5048835;28;20131;-69
2021/12/15 10:11:17;;;;;;;3.35;1.33;;;;;;;17.30;68.28;101029.19;4995475;28;20045;-69
2021/12/15 10:19:24;;;;;;;8.45;3.88;;;;;;;17.94;66.88;101033.97;5025924;28;20042;-69
2021/12/15 10:22:05;;;;;;;9.70;3.10;;;;;;;18.25;66.41;101032.75;5027728;28;20069;-69
2021/12/15 10:24:37;;;;;;;4.40;1.20;;;;;;;18.41;65.60;101037.91;5025429;28;20076;-68
2021/12/15 10:27:07;;;;;;;5.20;2.33;;;;;;;18.55;64.45;101027.94;5028068;28;20053;-71
2021/12/15 10:29:35;;;;;;;5.32;1.88;;;;;;;18.43;64.45;101030.78;5016838;28;20460;-71
2021/12/15 10:32:11;;;;;;;4.30;1.30;;;;;;;18.21;61.95;101028.34;5037423;28;20045;-69
2021/12/15 10:34:40;;;;;;;2.67;1.15;;;;;;;18.01;62.27;101025.00;5041356;28;20048;-68
2021/12/15 10:37:13;;;;;;;2.58;1.20;;;;;;;17.92;60.80;101023.31;5046133;28;20041;-69
2021/12/15 10:39:41;;;;;;;3.13;1.30;;;;;;;17.70;60.92;101032.44;5029524;28;20033;-68
2021/12/15 10:42:08;;;;;;;7.32;1.77;;;;;;;17.48;61.34;101029.03;5035523;28;20045;-69
2021/12/15 10:44:36;;;;;;;3.25;1.40;;;;;;;17.13;61.27;101033.78;5038954;28;20420;-69
2021/12/15 10:47:06;;;;;;;3.13;1.45;;;;;;;16.73;62.60;101039.34;5024214;28;20497;-68
2021/12/15 10:49:39;;;;;;;4.10;1.65;;;;;;;16.31;65.15;101050.13;5047022;28;20489;-70
2021/12/15 10:52:09;;;;;;;5.35;2.22;;;;;;;16.03;67.30;101053.75;5044325;28;20124;-70
2021/12/15 10:54:44;;;;;;;8.88;3.13;;;;;;;15.97;68.79;101053.78;5028407;28;20512;-69
2021/12/15 10:57:14;;;;;;;12.77;7.38;;;;;;;15.93;70.00;101053.78;5039890;28;20037;-69
2021/12/15 10:59:44;;;;;;;8.93;4.90;;;;;;;15.99;70.79;101057.31;5046383;28;20124;-69
2021/12/15 11:02:16;;;;;;;5.50;1.05;;;;;;;16.08;70.75;101049.34;5022280;28;20175;-69
2021/12/15 11:04:46;;;;;;;3.65;0.90;;;;;;;16.15;70.62;101051.94;5005400;28;20121;-69
2021/12/15 11:07:19;;;;;;;7.35;0.95;;;;;;;16.05;70.93;101065.31;5018807;28;20037;-69
2021/12/15 11:09:53;;;;;;;2.90;0.98;;;;;;;15.88;71.29;101066.19;5026237;28;20147;-70
2021/12/15 11:12:26;;;;;;;2.40;0.95;;;;;;;15.84;71.67;101059.13;5046460;28;20052;-70
2021/12/15 11:14:56;;;;;;;2.00;1.10;;;;;;;15.84;72.09;101059.13;5024920;28;20486;-69
2021/12/15 11:17:26;;;;;;;8.63;3.15;;;;;;;15.87;72.87;101059.13;5026047;28;20068;-69
2021/12/15 11:20:00;;;;;;;5.93;1.50;;;;;;;16.03;74.16;101049.31;5027316;28;20132;-69
2021/12/15 11:22:49;;;;;;;;;;;;;;;16.13;74.89;101044.88;5047041;28;20049;-70
2021/12/15 11:25:40;;;;;;;7.57;2.45;;;;;;;16.33;75.34;101043.03;5038236;28;19921;-69
2021/12/15 11:28:18;;;;;;;4.15;1.65;;;;;;;16.47;75.36;101040.31;5046885;28;20466;-70
2021/12/15 11:30:56;;;;;;;3.28;1.08;;;;;;;16.48;74.28;101042.97;5027720;28;20120;-70
2021/12/15 11:33:28;;;;;;;6.93;1.63;;;;;;;16.38;72.37;101041.25;5009212;28;20497;-70
2021/12/15 11:35:58;;;;;;;4.80;1.60;;;;;;;16.41;72.47;101035.88;5016770;28;20142;-69
2021/12/15 11:38:27;;;;;;;3.13;1.70;;;;;;;16.60;72.47;101042.09;5029434;28;20123;-70
2021/12/15 11:41:10;;;;;;;4.20;1.70;;;;;;;16.77;71.10;101033.97;5006482;28;20053;-69
2021/12/15 11:43:45;;;;;;;3.08;1.10;;;;;;;16.76;70.77;101035.75;5025805;28;20033;-70
2021/12/15 11:46:27;;;;;;;4.82;1.40;;;;;;;16.77;70.16;101037.53;5044642;28;20041;-70
2021/12/15 11:48:58;;;;;;;3.70;1.70;;;;;;;16.81;70.17;101033.94;5044624;28;20058;-70
2021/12/15 11:51:34;;;;;;;5.95;1.65;;;;;;;16.78;69.08;101035.75;5029125;28;20055;-69
2021/12/15 11:54:02;;;;;;;8.30;2.90;;;;;;;16.78;68.93;101027.75;5044234;28;20116;-70
2021/12/15 11:56:34;;;;;;;6.38;2.15;;;;;;;16.83;67.87;101028.63;5022005;28;20567;-69
2021/12/15 11:59:17;;;;;;;5.45;1.50;;;;;;;16.79;67.26;101021.53;5043844;28;20132;-70
2021/12/15 12:02:01;;;;;;;5.22;1.42;;;;;;;16.93;67.62;101025.91;5014445;28;20061;-70
2021/12/15 12:04:36;;;;;;;7.22;1.90;;;;;;;17.02;67.22;101031.16;5019024;28;20037;-70
2021/12/15 12:07:21;;;;;;;7.43;1.75;;;;;;;17.00;66.12;101032.94;5046811;28;20041;-70
2021/12/15 12:09:52;;;;;;;4.15;1.40;;;;;;;17.03;66.79;101027.59;5019376;28;20721;-69
2021/12/15 12:12:24;;;;;;;3.75;1.30;;;;;;;17.13;66.44;101028.44;5015082;28;20160;-69
2021/12/15 12:14:52;;;;;;;5.63;2.22;;;;;;;17.09;65.64;101018.66;5029509;28;20621;-70
2021/12/15 12:17:23;;;;;;;5.75;2.63;;;;;;;17.00;65.51;101034.75;5029257;28;20049;-69
2021/12/15 12:19:55;;;;;;;6.13;2.30;;;;;;;16.98;65.67;101036.53;5028737;28;20048;-69
2021/12/15 12:22:24;;;;;;;6.82;2.50;;;;;;;16.80;65.23;101044.66;5013729;28;20046;-69
2021/12/15 12:24:55;;;;;;;2.63;1.30;;;;;;;16.71;65.40;101053.56;5027595;28;20073;-70
2021/12/15 12:27:27;;;;;;;3.15;1.10;;;;;;;16.69;65.29;101058.91;5029452;28;20053;-70
2021/12/15 12:29:56;;;;;;;3.13;1.45;;;;;;;16.61;65.19;101055.38;5028965;28;20041;-69
2021/12/15 12:32:24;;;;;;;7.78;2.42;;;;;;;16.38;65.26;101065.22;5028090;28;20509;-69
2021/12/15 12:34:53;;;;;;;8.45;4.25;;;;;;;16.27;65.69;101064.38;5028667;28;20489;-69
2021/12/15 12:37:22;;;;;;;5.15;1.48;;;;;;;16.17;65.71;101073.25;5028790;28;20103;-69
2021/12/15 12:39:58;;;;;;;6.75;1.40;;;;;;;16.11;65.94;101070.63;5001339;28;20068;-69